sensor_id;sensor_type;location;lat;lon;timestamp;P1;durP1;ratioP1;P2;durP2;ratioP2
38358;SDS011;42072;48.044;14.416;2023-02-15T00:00:07;55.63;;;18.00;;
38358;SDS011;42072;48.044;14.416;2023-02-15T00:02:39;51.10;;;17.15;;
38358;SDS011;42072;48.044;14.416;2023-02-15T00:05:07;54.20;;;18.17;;
38358;SDS011;42072;48.044;14.416;2023-02-15T00:07:34;54.80;;;18.45;;
38358;SDS011;42072;48.044;14.416;2023-02-15T00:10:02;57.33;;;18.20;;
38358;SDS011;42072;48.044;14.416;2023-02-15T00:12:30;49.53;;;18.67;;
38358;SDS011;42072;48.044;14.416;2023-02-15T00:14:57;47.05;;;17.92;;
38358;SDS011;42072;48.044;14.416;2023-02-15T00:17:27;50.97;;;18.20;;
38358;SDS011;42072;48.044;14.416;2023-02-15T00:19:54;52.05;;;18.30;;
38358;SDS011;42072;48.044;14.416;2023-02-15T00:22:22;53.25;;;17.92;;
38358;SDS011;42072;48.044;14.416;2023-02-15T00:24:49;63.25;;;18.75;;
38358;SDS011;42072;48.044;14.416;2023-02-15T00:27:17;69.45;;;17.58;;
38358;SDS011;42072;48.044;14.416;2023-02-15T00:29:44;52.40;;;17.90;;
38358;SDS011;42072;48.044;14.416;2023-02-15T00:32:13;63.92;;;18.60;;
38358;SDS011;42072;48.044;14.416;2023-02-15T00:34:40;60.67;;;18.13;;
38358;SDS011;42072;48.044;14.416;2023-02-15T00:37:07;72.93;;;18.65;;
38358;SDS011;42072;48.044;14.416;2023-02-15T00:39:35;48.33;;;18.38;;
38358;SDS011;42072;48.044;14.416;2023-02-15T00:42:02;60.85;;;17.48;;
38358;SDS011;42072;48.044;14.416;2023-02-15T00:44:30;71.05;;;17.95;;
38358;SDS011;42072;48.044;14.416;2023-02-15T00:46:59;71.45;;;18.92;;
38358;SDS011;42072;48.044;14.416;2023-02-15T00:49:26;71.40;;;18.48;;
38358;SDS011;42072;48.044;14.416;2023-02-15T00:51:53;68.97;;;18.02;;
38358;SDS011;42072;48.044;14.416;2023-02-15T00:54:20;53.17;;;17.17;;
38358;SDS011;42072;48.044;14.416;2023-02-15T00:56:48;53.15;;;17.38;;
38358;SDS011;42072;48.044;14.416;2023-02-15T00:59:15;59.15;;;18.10;;
38358;SDS011;42072;48.044;14.416;2023-02-15T01:01:43;52.53;;;19.45;;
38358;SDS011;42072;48.044;14.416;2023-02-15T01:04:10;58.55;;;19.17;;
38358;SDS011;42072;48.044;14.416;2023-02-15T01:06:38;53.90;;;17.80;;
38358;SDS011;42072;48.044;14.416;2023-02-15T01:09:05;61.92;;;17.92;;
38358;SDS011;42072;48.044;14.416;2023-02-15T01:11:32;53.05;;;18.27;;
38358;SDS011;42072;48.044;14.416;2023-02-15T01:13:59;68.03;;;19.23;;
38358;SDS011;42072;48.044;14.416;2023-02-15T01:16:27;54.08;;;17.48;;
38358;SDS011;42072;48.044;14.416;2023-02-15T01:18:55;58.72;;;17.73;;
38358;SDS011;42072;48.044;14.416;2023-02-15T01:21:24;49.67;;;17.35;;
38358;SDS011;42072;48.044;14.416;2023-02-15T01:23:53;38.47;;;16.55;;
38358;SDS011;42072;48.044;14.416;2023-02-15T01:26:20;50.10;;;16.67;;
38358;SDS011;42072;48.044;14.416;2023-02-15T01:28:48;42.58;;;17.15;;
38358;SDS011;42072;48.044;14.416;2023-02-15T01:31:16;38.53;;;16.00;;
38358;SDS011;42072;48.044;14.416;2023-02-15T01:33:45;53.70;;;17.10;;
38358;SDS011;42072;48.044;14.416;2023-02-15T01:36:14;63.10;;;17.48;;
38358;SDS011;42072;48.044;14.416;2023-02-15T01:38:43;54.63;;;17.52;;
38358;SDS011;42072;48.044;14.416;2023-02-15T01:41:11;58.15;;;17.00;;
38358;SDS011;42072;48.044;14.416;2023-02-15T01:43:52;63.28;;;17.52;;
38358;SDS011;42072;48.044;14.416;2023-02-15T01:46:31;57.15;;;17.65;;
38358;SDS011;42072;48.044;14.416;2023-02-15T01:49:14;68.25;;;17.73;;
38358;SDS011;42072;48.044;14.416;2023-02-15T01:51:44;53.45;;;16.92;;
38358;SDS011;42072;48.044;14.416;2023-02-15T01:54:25;61.47;;;16.83;;
38358;SDS011;42072;48.044;14.416;2023-02-15T01:56:59;73.72;;;18.20;;
38358;SDS011;42072;48.044;14.416;2023-02-15T01:59:31;60.33;;;17.25;;
38358;SDS011;42072;48.044;14.416;2023-02-15T02:02:01;59.08;;;17.95;;
38358;SDS011;42072;48.044;14.416;2023-02-15T02:04:33;59.53;;;18.17;;
38358;SDS011;42072;48.044;14.416;2023-02-15T02:07:12;62.72;;;17.42;;
38358;SDS011;42072;48.044;14.416;2023-02-15T02:09:41;51.20;;;16.67;;
38358;SDS011;42072;48.044;14.416;2023-02-15T02:12:09;58.45;;;17.42;;
38358;SDS011;42072;48.044;14.416;2023-02-15T02:14:36;48.88;;;16.95;;
38358;SDS011;42072;48.044;14.416;2023-02-15T02:34:13;57.17;;;16.27;;
38358;SDS011;42072;48.044;14.416;2023-02-15T02:39:51;51.50;;;16.15;;
38358;SDS011;42072;48.044;14.416;2023-02-15T02:42:49;47.55;;;15.45;;
38358;SDS011;42072;48.044;14.416;2023-02-15T02:50:58;47.17;;;16.65;;
38358;SDS011;42072;48.044;14.416;2023-02-15T02:53:25;49.75;;;16.90;;
38358;SDS011;42072;48.044;14.416;2023-02-15T02:55:59;46.85;;;16.50;;
38358;SDS011;42072;48.044;14.416;2023-02-15T02:58:48;46.90;;;16.00;;
38358;SDS011;42072;48.044;14.416;2023-02-15T03:01:36;49.78;;;16.98;;
38358;SDS011;42072;48.044;14.416;2023-02-15T03:04:29;41.55;;;17.73;;
38358;SDS011;42072;48.044;14.416;2023-02-15T03:07:03;48.67;;;16.55;;
38358;SDS011;42072;48.044;14.416;2023-02-15T03:09:35;47.47;;;15.75;;
38358;SDS011;42072;48.044;14.416;2023-02-15T03:12:15;43.47;;;15.20;;
38358;SDS011;42072;48.044;14.416;2023-02-15T03:14:47;48.83;;;16.77;;
38358;SDS011;42072;48.044;14.416;2023-02-15T03:17:18;56.60;;;17.33;;
38358;SDS011;42072;48.044;14.416;2023-02-15T03:19:48;53.83;;;16.95;;
38358;SDS011;42072;48.044;14.416;2023-02-15T03:22:23;50.70;;;16.63;;
38358;SDS011;42072;48.044;14.416;2023-02-15T03:25:20;46.17;;;16.13;;
38358;SDS011;42072;48.044;14.416;2023-02-15T03:27:56;49.38;;;16.27;;
38358;SDS011;42072;48.044;14.416;2023-02-15T03:30:28;51.10;;;17.40;;
38358;SDS011;42072;48.044;14.416;2023-02-15T03:32:58;39.40;;;15.40;;
38358;SDS011;42072;48.044;14.416;2023-02-15T03:35:29;52.35;;;16.90;;
38358;SDS011;42072;48.044;14.416;2023-02-15T03:38:10;45.03;;;16.65;;
38358;SDS011;42072;48.044;14.416;2023-02-15T03:40:44;45.00;;;15.45;;
38358;SDS011;42072;48.044;14.416;2023-02-15T03:43:38;44.15;;;16.38;;
38358;SDS011;42072;48.044;14.416;2023-02-15T03:49:21;40.88;;;16.08;;
38358;SDS011;42072;48.044;14.416;2023-02-15T03:52:05;44.38;;;15.82;;
38358;SDS011;42072;48.044;14.416;2023-02-15T03:54:35;41.17;;;15.13;;
38358;SDS011;42072;48.044;14.416;2023-02-15T03:57:20;36.75;;;15.43;;
38358;SDS011;42072;48.044;14.416;2023-02-15T04:00:19;39.25;;;15.05;;
38358;SDS011;42072;48.044;14.416;2023-02-15T04:03:20;43.45;;;15.98;;
38358;SDS011;42072;48.044;14.416;2023-02-15T04:08:19;38.38;;;14.70;;
38358;SDS011;42072;48.044;14.416;2023-02-15T04:10:47;41.70;;;14.85;;
38358;SDS011;42072;48.044;14.416;2023-02-15T04:13:22;41.38;;;15.93;;
38358;SDS011;42072;48.044;14.416;2023-02-15T04:15:53;49.42;;;17.15;;
38358;SDS011;42072;48.044;14.416;2023-02-15T04:18:31;38.42;;;15.70;;
38358;SDS011;42072;48.044;14.416;2023-02-15T04:21:23;32.13;;;13.82;;
38358;SDS011;42072;48.044;14.416;2023-02-15T04:24:09;37.70;;;14.43;;
38358;SDS011;42072;48.044;14.416;2023-02-15T04:26:56;39.30;;;14.07;;
38358;SDS011;42072;48.044;14.416;2023-02-15T04:29:23;38.30;;;14.40;;
38358;SDS011;42072;48.044;14.416;2023-02-15T04:31:54;41.50;;;14.07;;
38358;SDS011;42072;48.044;14.416;2023-02-15T04:34:23;39.85;;;14.70;;
38358;SDS011;42072;48.044;14.416;2023-02-15T04:36:50;37.75;;;15.20;;
38358;SDS011;42072;48.044;14.416;2023-02-15T04:39:18;43.97;;;15.25;;
38358;SDS011;42072;48.044;14.416;2023-02-15T04:41:45;36.35;;;14.43;;
38358;SDS011;42072;48.044;14.416;2023-02-15T04:44:14;36.03;;;15.20;;
38358;SDS011;42072;48.044;14.416;2023-02-15T04:46:42;35.75;;;14.15;;
38358;SDS011;42072;48.044;14.416;2023-02-15T04:49:09;32.83;;;14.85;;
38358;SDS011;42072;48.044;14.416;2023-02-15T04:51:36;36.20;;;14.15;;
38358;SDS011;42072;48.044;14.416;2023-02-15T04:54:04;37.25;;;14.32;;
38358;SDS011;42072;48.044;14.416;2023-02-15T04:56:31;38.25;;;14.80;;
38358;SDS011;42072;48.044;14.416;2023-02-15T04:59:00;36.78;;;14.98;;
38358;SDS011;42072;48.044;14.416;2023-02-15T05:01:28;38.83;;;14.90;;
38358;SDS011;42072;48.044;14.416;2023-02-15T05:03:56;33.72;;;14.57;;
38358;SDS011;42072;48.044;14.416;2023-02-15T05:06:23;38.03;;;14.00;;
38358;SDS011;42072;48.044;14.416;2023-02-15T05:08:50;31.15;;;13.90;;
38358;SDS011;42072;48.044;14.416;2023-02-15T05:11:18;32.75;;;13.52;;
38358;SDS011;42072;48.044;14.416;2023-02-15T05:13:45;35.88;;;13.48;;
38358;SDS011;42072;48.044;14.416;2023-02-15T05:16:13;36.17;;;13.93;;
38358;SDS011;42072;48.044;14.416;2023-02-15T05:18:40;38.30;;;14.55;;
38358;SDS011;42072;48.044;14.416;2023-02-15T05:21:07;39.92;;;14.70;;
38358;SDS011;42072;48.044;14.416;2023-02-15T05:23:35;37.20;;;13.52;;
38358;SDS011;42072;48.044;14.416;2023-02-15T05:26:02;35.47;;;15.35;;
38358;SDS011;42072;48.044;14.416;2023-02-15T05:28:48;37.08;;;14.77;;
38358;SDS011;42072;48.044;14.416;2023-02-15T05:31:16;37.90;;;15.20;;
38358;SDS011;42072;48.044;14.416;2023-02-15T05:33:45;45.35;;;14.77;;
38358;SDS011;42072;48.044;14.416;2023-02-15T05:36:12;39.47;;;17.33;;
38358;SDS011;42072;48.044;14.416;2023-02-15T05:38:40;39.58;;;15.82;;
38358;SDS011;42072;48.044;14.416;2023-02-15T05:41:08;40.45;;;18.05;;
38358;SDS011;42072;48.044;14.416;2023-02-15T05:43:37;37.38;;;14.52;;
38358;SDS011;42072;48.044;14.416;2023-02-15T05:46:05;38.40;;;14.43;;
38358;SDS011;42072;48.044;14.416;2023-02-15T05:48:33;44.53;;;15.02;;
38358;SDS011;42072;48.044;14.416;2023-02-15T05:53:30;39.80;;;15.38;;
38358;SDS011;42072;48.044;14.416;2023-02-15T05:55:59;34.55;;;14.85;;
38358;SDS011;42072;48.044;14.416;2023-02-15T05:58:28;41.00;;;15.23;;
38358;SDS011;42072;48.044;14.416;2023-02-15T06:00:57;41.88;;;16.08;;
38358;SDS011;42072;48.044;14.416;2023-02-15T06:03:25;43.55;;;15.48;;
38358;SDS011;42072;48.044;14.416;2023-02-15T06:05:54;39.67;;;14.80;;
38358;SDS011;42072;48.044;14.416;2023-02-15T06:08:22;39.70;;;15.05;;
38358;SDS011;42072;48.044;14.416;2023-02-15T06:10:49;37.17;;;14.50;;
38358;SDS011;42072;48.044;14.416;2023-02-15T06:13:17;43.83;;;16.67;;
38358;SDS011;42072;48.044;14.416;2023-02-15T06:15:44;44.17;;;17.00;;
38358;SDS011;42072;48.044;14.416;2023-02-15T06:18:11;43.58;;;16.52;;
38358;SDS011;42072;48.044;14.416;2023-02-15T06:20:39;48.97;;;17.33;;
38358;SDS011;42072;48.044;14.416;2023-02-15T06:23:06;43.33;;;17.13;;
38358;SDS011;42072;48.044;14.416;2023-02-15T06:25:34;48.38;;;18.55;;
38358;SDS011;42072;48.044;14.416;2023-02-15T06:28:05;54.40;;;21.73;;
38358;SDS011;42072;48.044;14.416;2023-02-15T06:30:32;42.03;;;16.73;;
38358;SDS011;42072;48.044;14.416;2023-02-15T06:33:00;40.50;;;17.13;;
38358;SDS011;42072;48.044;14.416;2023-02-15T06:35:27;36.58;;;14.80;;
38358;SDS011;42072;48.044;14.416;2023-02-15T06:37:54;40.67;;;14.70;;
38358;SDS011;42072;48.044;14.416;2023-02-15T06:40:22;37.38;;;13.52;;
38358;SDS011;42072;48.044;14.416;2023-02-15T06:42:49;40.58;;;15.43;;
38358;SDS011;42072;48.044;14.416;2023-02-15T06:45:16;34.90;;;14.45;;
38358;SDS011;42072;48.044;14.416;2023-02-15T06:47:44;30.55;;;13.82;;
38358;SDS011;42072;48.044;14.416;2023-02-15T06:50:11;34.05;;;14.82;;
38358;SDS011;42072;48.044;14.416;2023-02-15T06:52:39;34.38;;;14.10;;
38358;SDS011;42072;48.044;14.416;2023-02-15T06:55:06;34.78;;;14.98;;
38358;SDS011;42072;48.044;14.416;2023-02-15T06:57:34;34.47;;;14.23;;
38358;SDS011;42072;48.044;14.416;2023-02-15T07:00:02;40.30;;;16.42;;
38358;SDS011;42072;48.044;14.416;2023-02-15T07:02:32;33.55;;;13.45;;
38358;SDS011;42072;48.044;14.416;2023-02-15T07:05:00;39.05;;;14.80;;
38358;SDS011;42072;48.044;14.416;2023-02-15T07:07:27;33.85;;;13.98;;
38358;SDS011;42072;48.044;14.416;2023-02-15T07:09:54;31.42;;;13.95;;
38358;SDS011;42072;48.044;14.416;2023-02-15T07:12:22;33.55;;;14.27;;
38358;SDS011;42072;48.044;14.416;2023-02-15T07:15:09;33.55;;;13.77;;
38358;SDS011;42072;48.044;14.416;2023-02-15T07:17:49;34.20;;;13.65;;
38358;SDS011;42072;48.044;14.416;2023-02-15T07:20:19;35.55;;;14.43;;
38358;SDS011;42072;48.044;14.416;2023-02-15T07:22:53;35.17;;;15.88;;
38358;SDS011;42072;48.044;14.416;2023-02-15T07:25:21;48.75;;;17.83;;
38358;SDS011;42072;48.044;14.416;2023-02-15T07:28:03;42.10;;;17.10;;
38358;SDS011;42072;48.044;14.416;2023-02-15T07:30:43;39.00;;;16.13;;
38358;SDS011;42072;48.044;14.416;2023-02-15T07:33:26;41.43;;;16.13;;
38358;SDS011;42072;48.044;14.416;2023-02-15T07:35:54;34.78;;;15.07;;
38358;SDS011;42072;48.044;14.416;2023-02-15T07:41:55;36.15;;;14.35;;
38358;SDS011;42072;48.044;14.416;2023-02-15T07:55:13;39.47;;;15.85;;
38358;SDS011;42072;48.044;14.416;2023-02-15T07:58:06;36.03;;;15.13;;
38358;SDS011;42072;48.044;14.416;2023-02-15T08:04:06;37.60;;;16.40;;
38358;SDS011;42072;48.044;14.416;2023-02-15T08:06:51;51.80;;;18.98;;
38358;SDS011;42072;48.044;14.416;2023-02-15T08:09:37;49.20;;;18.77;;
38358;SDS011;42072;48.044;14.416;2023-02-15T08:12:32;39.85;;;16.52;;
38358;SDS011;42072;48.044;14.416;2023-02-15T08:15:17;40.47;;;15.20;;
38358;SDS011;42072;48.044;14.416;2023-02-15T08:18:28;34.00;;;15.25;;
38358;SDS011;42072;48.044;14.416;2023-02-15T08:21:18;32.03;;;14.80;;
38358;SDS011;42072;48.044;14.416;2023-02-15T08:23:49;33.17;;;15.55;;
38358;SDS011;42072;48.044;14.416;2023-02-15T08:26:23;35.72;;;15.43;;
38358;SDS011;42072;48.044;14.416;2023-02-15T08:29:09;28.92;;;13.45;;
38358;SDS011;42072;48.044;14.416;2023-02-15T08:36:09;33.63;;;14.05;;
38358;SDS011;42072;48.044;14.416;2023-02-15T08:45:12;36.65;;;15.00;;
38358;SDS011;42072;48.044;14.416;2023-02-15T08:50:53;34.88;;;16.05;;
38358;SDS011;42072;48.044;14.416;2023-02-15T08:54:02;30.58;;;13.52;;
38358;SDS011;42072;48.044;14.416;2023-02-15T09:00:09;29.25;;;11.75;;
38358;SDS011;42072;48.044;14.416;2023-02-15T09:02:49;32.50;;;13.02;;
38358;SDS011;42072;48.044;14.416;2023-02-15T09:05:26;26.38;;;11.90;;
38358;SDS011;42072;48.044;14.416;2023-02-15T09:08:02;30.60;;;12.55;;
38358;SDS011;42072;48.044;14.416;2023-02-15T09:10:33;28.98;;;12.93;;
38358;SDS011;42072;48.044;14.416;2023-02-15T09:13:08;31.00;;;13.38;;
38358;SDS011;42072;48.044;14.416;2023-02-15T09:15:46;34.72;;;13.63;;
38358;SDS011;42072;48.044;14.416;2023-02-15T09:19:07;28.67;;;12.65;;
38358;SDS011;42072;48.044;14.416;2023-02-15T09:21:38;29.30;;;13.02;;
38358;SDS011;42072;48.044;14.416;2023-02-15T09:27:43;29.70;;;12.48;;
38358;SDS011;42072;48.044;14.416;2023-02-15T09:30:17;28.95;;;13.20;;
38358;SDS011;42072;48.044;14.416;2023-02-15T09:32:58;33.38;;;13.73;;
38358;SDS011;42072;48.044;14.416;2023-02-15T09:36:24;32.03;;;13.73;;
38358;SDS011;42072;48.044;14.416;2023-02-15T09:43:20;35.70;;;13.95;;
38358;SDS011;42072;48.044;14.416;2023-02-15T09:57:31;28.50;;;12.32;;
38358;SDS011;42072;48.044;14.416;2023-02-15T10:00:47;29.25;;;12.02;;
38358;SDS011;42072;48.044;14.416;2023-02-15T10:17:41;29.17;;;11.88;;
38358;SDS011;42072;48.044;14.416;2023-02-15T10:34:17;24.65;;;11.48;;
38358;SDS011;42072;48.044;14.416;2023-02-15T11:06:49;24.13;;;10.63;;
38358;SDS011;42072;48.044;14.416;2023-02-15T11:09:25;26.17;;;10.57;;
38358;SDS011;42072;48.044;14.416;2023-02-15T11:11:57;21.90;;;10.18;;
38358;SDS011;42072;48.044;14.416;2023-02-15T11:17:14;23.55;;;10.98;;
38358;SDS011;42072;48.044;14.416;2023-02-15T11:22:34;22.50;;;10.60;;
38358;SDS011;42072;48.044;14.416;2023-02-15T11:25:06;24.13;;;10.75;;
38358;SDS011;42072;48.044;14.416;2023-02-15T11:27:57;23.90;;;10.90;;
38358;SDS011;42072;48.044;14.416;2023-02-15T11:33:29;20.00;;;10.38;;
38358;SDS011;42072;48.044;14.416;2023-02-15T11:36:08;22.67;;;10.13;;
38358;SDS011;42072;48.044;14.416;2023-02-15T11:38:43;21.63;;;11.05;;
38358;SDS011;42072;48.044;14.416;2023-02-15T11:41:14;23.33;;;11.07;;
38358;SDS011;42072;48.044;14.416;2023-02-15T11:46:34;23.17;;;11.27;;
38358;SDS011;42072;48.044;14.416;2023-02-15T11:49:23;23.13;;;11.32;;
38358;SDS011;42072;48.044;14.416;2023-02-15T11:52:01;20.85;;;10.18;;
38358;SDS011;42072;48.044;14.416;2023-02-15T11:54:33;20.58;;;10.68;;
38358;SDS011;42072;48.044;14.416;2023-02-15T11:57:06;22.45;;;10.55;;
38358;SDS011;42072;48.044;14.416;2023-02-15T11:59:49;25.67;;;11.63;;
38358;SDS011;42072;48.044;14.416;2023-02-15T12:02:22;25.10;;;11.98;;
38358;SDS011;42072;48.044;14.416;2023-02-15T12:05:26;25.75;;;11.52;;
38358;SDS011;42072;48.044;14.416;2023-02-15T12:07:52;21.38;;;10.98;;
38358;SDS011;42072;48.044;14.416;2023-02-15T12:10:28;22.95;;;11.55;;
38358;SDS011;42072;48.044;14.416;2023-02-15T12:13:13;24.00;;;11.75;;
38358;SDS011;42072;48.044;14.416;2023-02-15T12:15:51;23.35;;;11.52;;
38358;SDS011;42072;48.044;14.416;2023-02-15T12:21:24;23.48;;;11.43;;
38358;SDS011;42072;48.044;14.416;2023-02-15T12:24:18;22.52;;;11.77;;
38358;SDS011;42072;48.044;14.416;2023-02-15T12:26:55;23.48;;;11.80;;
38358;SDS011;42072;48.044;14.416;2023-02-15T12:29:45;22.77;;;11.40;;
38358;SDS011;42072;48.044;14.416;2023-02-15T12:32:22;25.80;;;12.55;;
38358;SDS011;42072;48.044;14.416;2023-02-15T12:35:14;23.90;;;10.82;;
38358;SDS011;42072;48.044;14.416;2023-02-15T12:37:53;25.73;;;12.38;;
38358;SDS011;42072;48.044;14.416;2023-02-15T12:40:24;20.05;;;10.35;;
38358;SDS011;42072;48.044;14.416;2023-02-15T12:42:57;27.52;;;11.93;;
38358;SDS011;42072;48.044;14.416;2023-02-15T12:48:07;24.98;;;11.40;;
38358;SDS011;42072;48.044;14.416;2023-02-15T12:50:41;28.63;;;12.35;;
38358;SDS011;42072;48.044;14.416;2023-02-15T12:53:53;25.35;;;11.88;;
38358;SDS011;42072;48.044;14.416;2023-02-15T12:56:13;24.05;;;11.65;;
38358;SDS011;42072;48.044;14.416;2023-02-15T12:59:04;25.33;;;12.07;;
38358;SDS011;42072;48.044;14.416;2023-02-15T13:01:33;25.55;;;12.48;;
38358;SDS011;42072;48.044;14.416;2023-02-15T13:04:04;25.92;;;12.32;;
38358;SDS011;42072;48.044;14.416;2023-02-15T13:06:33;23.83;;;12.30;;
38358;SDS011;42072;48.044;14.416;2023-02-15T13:11:46;52.53;;;23.70;;
38358;SDS011;42072;48.044;14.416;2023-02-15T13:14:20;23.60;;;12.63;;
38358;SDS011;42072;48.044;14.416;2023-02-15T13:16:56;23.85;;;12.30;;
38358;SDS011;42072;48.044;14.416;2023-02-15T13:22:17;23.73;;;11.48;;
38358;SDS011;42072;48.044;14.416;2023-02-15T13:24:59;26.65;;;13.15;;
38358;SDS011;42072;48.044;14.416;2023-02-15T13:27:34;24.25;;;12.60;;
38358;SDS011;42072;48.044;14.416;2023-02-15T13:32:52;23.60;;;11.35;;
38358;SDS011;42072;48.044;14.416;2023-02-15T13:35:24;23.35;;;11.95;;
38358;SDS011;42072;48.044;14.416;2023-02-15T13:41:16;24.02;;;12.52;;
38358;SDS011;42072;48.044;14.416;2023-02-15T13:47:04;24.70;;;12.13;;
38358;SDS011;42072;48.044;14.416;2023-02-15T13:49:43;25.05;;;13.57;;
38358;SDS011;42072;48.044;14.416;2023-02-15T13:52:23;24.52;;;13.15;;
38358;SDS011;42072;48.044;14.416;2023-02-15T13:54:59;29.75;;;14.10;;
38358;SDS011;42072;48.044;14.416;2023-02-15T14:06:19;27.88;;;13.82;;
38358;SDS011;42072;48.044;14.416;2023-02-15T14:09:10;29.70;;;13.60;;
38358;SDS011;42072;48.044;14.416;2023-02-15T14:12:12;29.23;;;13.68;;
38358;SDS011;42072;48.044;14.416;2023-02-15T14:15:18;27.85;;;13.32;;
38358;SDS011;42072;48.044;14.416;2023-02-15T14:21:13;28.90;;;14.60;;
38358;SDS011;42072;48.044;14.416;2023-02-15T14:31:59;30.25;;;13.15;;
38358;SDS011;42072;48.044;14.416;2023-02-15T14:37:27;36.42;;;14.93;;
38358;SDS011;42072;48.044;14.416;2023-02-15T14:40:10;37.08;;;16.42;;
38358;SDS011;42072;48.044;14.416;2023-02-15T14:45:47;38.25;;;15.65;;
38358;SDS011;42072;48.044;14.416;2023-02-15T14:48:24;29.65;;;15.40;;
38358;SDS011;42072;48.044;14.416;2023-02-15T14:50:58;34.30;;;15.15;;
38358;SDS011;42072;48.044;14.416;2023-02-15T14:58:37;33.97;;;15.82;;
38358;SDS011;42072;48.044;14.416;2023-02-15T15:01:08;34.70;;;14.90;;
38358;SDS011;42072;48.044;14.416;2023-02-15T15:06:23;32.17;;;15.27;;
38358;SDS011;42072;48.044;14.416;2023-02-15T15:08:58;30.80;;;13.98;;
38358;SDS011;42072;48.044;14.416;2023-02-15T15:14:10;34.05;;;14.13;;
38358;SDS011;42072;48.044;14.416;2023-02-15T15:16:58;29.83;;;14.00;;
38358;SDS011;42072;48.044;14.416;2023-02-15T15:20:02;33.80;;;14.05;;
38358;SDS011;42072;48.044;14.416;2023-02-15T15:22:21;31.13;;;13.75;;
38358;SDS011;42072;48.044;14.416;2023-02-15T15:24:55;30.67;;;14.80;;
38358;SDS011;42072;48.044;14.416;2023-02-15T15:35:28;37.05;;;14.90;;
38358;SDS011;42072;48.044;14.416;2023-02-15T15:44:25;32.38;;;14.40;;
38358;SDS011;42072;48.044;14.416;2023-02-15T15:49:47;34.05;;;15.50;;
38358;SDS011;42072;48.044;14.416;2023-02-15T15:52:18;36.92;;;15.88;;
38358;SDS011;42072;48.044;14.416;2023-02-15T15:54:48;35.40;;;15.55;;
38358;SDS011;42072;48.044;14.416;2023-02-15T15:57:38;34.45;;;15.77;;
38358;SDS011;42072;48.044;14.416;2023-02-15T16:02:55;33.88;;;15.00;;
38358;SDS011;42072;48.044;14.416;2023-02-15T16:05:23;34.00;;;15.23;;
38358;SDS011;42072;48.044;14.416;2023-02-15T16:07:50;35.50;;;15.40;;
38358;SDS011;42072;48.044;14.416;2023-02-15T16:10:25;35.78;;;15.85;;
38358;SDS011;42072;48.044;14.416;2023-02-15T16:12:54;36.70;;;15.73;;
38358;SDS011;42072;48.044;14.416;2023-02-15T16:15:29;39.45;;;15.57;;
38358;SDS011;42072;48.044;14.416;2023-02-15T16:17:58;37.58;;;16.30;;
38358;SDS011;42072;48.044;14.416;2023-02-15T16:20:31;38.42;;;16.73;;
38358;SDS011;42072;48.044;14.416;2023-02-15T16:23:12;38.13;;;16.40;;
38358;SDS011;42072;48.044;14.416;2023-02-15T16:25:55;39.42;;;16.92;;
38358;SDS011;42072;48.044;14.416;2023-02-15T16:28:34;46.67;;;18.50;;
38358;SDS011;42072;48.044;14.416;2023-02-15T16:31:05;47.65;;;17.98;;
38358;SDS011;42072;48.044;14.416;2023-02-15T16:33:39;43.17;;;17.92;;
38358;SDS011;42072;48.044;14.416;2023-02-15T16:36:12;43.53;;;18.35;;
38358;SDS011;42072;48.044;14.416;2023-02-15T16:41:23;40.03;;;18.13;;
38358;SDS011;42072;48.044;14.416;2023-02-15T16:43:54;46.92;;;18.58;;
38358;SDS011;42072;48.044;14.416;2023-02-15T16:46:29;46.33;;;18.55;;
38358;SDS011;42072;48.044;14.416;2023-02-15T16:49:00;47.53;;;19.63;;
38358;SDS011;42072;48.044;14.416;2023-02-15T16:51:31;45.60;;;18.17;;
38358;SDS011;42072;48.044;14.416;2023-02-15T16:54:05;52.58;;;20.48;;
38358;SDS011;42072;48.044;14.416;2023-02-15T16:56:36;43.92;;;19.00;;
38358;SDS011;42072;48.044;14.416;2023-02-15T16:59:14;45.00;;;18.83;;
38358;SDS011;42072;48.044;14.416;2023-02-15T17:01:48;47.30;;;19.08;;
38358;SDS011;42072;48.044;14.416;2023-02-15T17:09:30;52.60;;;22.30;;
38358;SDS011;42072;48.044;14.416;2023-02-15T17:11:58;45.85;;;20.58;;
38358;SDS011;42072;48.044;14.416;2023-02-15T17:14:29;49.03;;;20.58;;
38358;SDS011;42072;48.044;14.416;2023-02-15T17:16:59;48.17;;;19.70;;
38358;SDS011;42072;48.044;14.416;2023-02-15T17:19:47;53.33;;;21.90;;
38358;SDS011;42072;48.044;14.416;2023-02-15T17:22:23;47.05;;;21.02;;
38358;SDS011;42072;48.044;14.416;2023-02-15T17:24:58;49.10;;;21.08;;
38358;SDS011;42072;48.044;14.416;2023-02-15T17:27:28;56.20;;;22.92;;
38358;SDS011;42072;48.044;14.416;2023-02-15T17:30:01;42.28;;;19.13;;
38358;SDS011;42072;48.044;14.416;2023-02-15T17:32:56;47.60;;;19.17;;
38358;SDS011;42072;48.044;14.416;2023-02-15T17:35:29;46.35;;;19.95;;
38358;SDS011;42072;48.044;14.416;2023-02-15T17:38:05;50.67;;;20.73;;
38358;SDS011;42072;48.044;14.416;2023-02-15T17:40:43;48.67;;;19.70;;
38358;SDS011;42072;48.044;14.416;2023-02-15T17:43:12;47.70;;;20.00;;
38358;SDS011;42072;48.044;14.416;2023-02-15T17:45:48;48.58;;;21.42;;
38358;SDS011;42072;48.044;14.416;2023-02-15T17:48:24;51.47;;;21.48;;
38358;SDS011;42072;48.044;14.416;2023-02-15T17:51:02;56.72;;;23.60;;
38358;SDS011;42072;48.044;14.416;2023-02-15T17:53:32;56.33;;;21.85;;
38358;SDS011;42072;48.044;14.416;2023-02-15T17:56:01;48.17;;;20.88;;
38358;SDS011;42072;48.044;14.416;2023-02-15T17:58:38;63.22;;;24.63;;
38358;SDS011;42072;48.044;14.416;2023-02-15T18:01:11;56.42;;;22.50;;
38358;SDS011;42072;48.044;14.416;2023-02-15T18:04:04;54.38;;;22.15;;
38358;SDS011;42072;48.044;14.416;2023-02-15T18:06:53;55.47;;;21.73;;
38358;SDS011;42072;48.044;14.416;2023-02-15T18:09:41;55.10;;;22.15;;
38358;SDS011;42072;48.044;14.416;2023-02-15T18:12:28;68.45;;;24.75;;
38358;SDS011;42072;48.044;14.416;2023-02-15T18:14:58;72.72;;;24.98;;
38358;SDS011;42072;48.044;14.416;2023-02-15T18:20:00;59.55;;;23.48;;
38358;SDS011;42072;48.044;14.416;2023-02-15T18:22:33;62.92;;;24.35;;
38358;SDS011;42072;48.044;14.416;2023-02-15T18:25:03;60.00;;;24.05;;
38358;SDS011;42072;48.044;14.416;2023-02-15T18:27:39;60.75;;;23.98;;
38358;SDS011;42072;48.044;14.416;2023-02-15T18:30:12;62.95;;;24.50;;
38358;SDS011;42072;48.044;14.416;2023-02-15T18:32:42;59.88;;;24.13;;
38358;SDS011;42072;48.044;14.416;2023-02-15T18:35:13;60.95;;;23.13;;
38358;SDS011;42072;48.044;14.416;2023-02-15T18:37:44;71.35;;;25.13;;
38358;SDS011;42072;48.044;14.416;2023-02-15T18:40:18;65.75;;;25.95;;
38358;SDS011;42072;48.044;14.416;2023-02-15T18:42:50;66.63;;;26.00;;
38358;SDS011;42072;48.044;14.416;2023-02-15T18:45:19;69.47;;;26.17;;
38358;SDS011;42072;48.044;14.416;2023-02-15T18:47:59;69.15;;;26.10;;
38358;SDS011;42072;48.044;14.416;2023-02-15T18:50:27;64.22;;;25.15;;
38358;SDS011;42072;48.044;14.416;2023-02-15T18:53:03;67.28;;;25.80;;
38358;SDS011;42072;48.044;14.416;2023-02-15T18:55:35;63.70;;;23.17;;